createdAt,value
2022-10-05T00:01:35.394Z,6.99
2022-10-05T00:04:16.012Z,6.97
2022-10-05T00:06:51.171Z,6.93
2022-10-05T00:09:23.375Z,6.88
2022-10-05T00:11:55.051Z,6.82
2022-10-05T00:14:34.241Z,6.77
2022-10-05T00:17:07.403Z,6.72
2022-10-05T00:19:39.896Z,6.69
2022-10-05T00:22:15.243Z,6.69
2022-10-05T00:24:47.619Z,6.70
2022-10-05T00:27:21.427Z,6.72
2022-10-05T00:29:59.374Z,6.74
2022-10-05T00:32:32.311Z,6.79
2022-10-05T00:35:03.870Z,6.81
2022-10-05T00:37:35.408Z,6.77
2022-10-05T00:40:20.485Z,6.76
2022-10-05T00:43:00.849Z,6.75
2022-10-05T00:45:38.773Z,6.72
2022-10-05T00:48:20.527Z,6.70
2022-10-05T00:51:17.273Z,6.66
2022-10-05T00:54:03.275Z,6.60
2022-10-05T00:56:57.575Z,6.54
2022-10-05T00:59:33.481Z,6.49
2022-10-05T01:02:11.782Z,6.43
2022-10-05T01:04:50.547Z,6.37
2022-10-05T01:07:33.904Z,6.32
2022-10-05T01:10:16.085Z,6.23
2022-10-05T01:12:55.737Z,6.21
2022-10-05T01:15:32.615Z,6.21
2022-10-05T01:18:13.581Z,6.22
2022-10-05T01:20:57.453Z,6.26
2022-10-05T01:24:18.332Z,6.33
2022-10-05T01:27:09.760Z,6.41
2022-10-05T01:29:46.762Z,6.45
2022-10-05T01:32:26.012Z,6.46
2022-10-05T01:35:10.534Z,6.46
2022-10-05T01:37:54.488Z,6.46
2022-10-05T01:40:32.580Z,6.43
2022-10-05T01:43:13.065Z,6.40
2022-10-05T01:45:54.873Z,6.34
2022-10-05T01:48:42.782Z,6.30
2022-10-05T01:51:28.876Z,6.26
2022-10-05T01:54:08.315Z,6.21
2022-10-05T01:56:45.912Z,6.15
2022-10-05T01:59:28.419Z,6.08
2022-10-05T02:02:04.820Z,6.00
2022-10-05T02:05:01.511Z,5.96
2022-10-05T02:07:38.307Z,5.95
2022-10-05T02:10:19.079Z,5.97
2022-10-05T02:12:54.506Z,6.02
2022-10-05T02:15:30.529Z,6.05
2022-10-05T02:18:11.145Z,6.08
2022-10-05T02:20:44.897Z,6.16
2022-10-05T02:23:20.500Z,6.19
2022-10-05T02:25:55.684Z,6.19
2022-10-05T02:28:33.142Z,6.21
2022-10-05T02:31:10.805Z,6.23
2022-10-05T02:33:42.471Z,6.25
2022-10-05T02:36:17.688Z,6.26
2022-10-05T02:38:59.605Z,6.24
2022-10-05T02:41:44.077Z,6.23
2022-10-05T02:44:26.912Z,6.19
2022-10-05T02:47:08.275Z,6.17
2022-10-05T02:49:46.191Z,6.14
2022-10-05T02:52:24.284Z,6.14
2022-10-05T02:55:04.647Z,6.17
2022-10-05T02:57:40.394Z,6.21
2022-10-05T03:00:17.236Z,6.25
2022-10-05T03:02:56.812Z,6.29
2022-10-05T03:05:32.790Z,6.32
2022-10-05T03:08:09.242Z,6.35
2022-10-05T03:10:48.669Z,6.36
2022-10-05T03:13:27.804Z,6.32
2022-10-05T03:16:12.513Z,6.30
2022-10-05T03:18:58.357Z,6.30
2022-10-05T03:21:53.566Z,6.27
2022-10-05T03:24:41.510Z,6.24
2022-10-05T03:27:27.094Z,6.20
2022-10-05T03:30:04.373Z,6.16
2022-10-05T03:32:49.924Z,6.09
2022-10-05T03:35:29.403Z,6.04
2022-10-05T03:38:10.715Z,5.99
2022-10-05T03:40:46.546Z,5.93
2022-10-05T03:43:47.790Z,5.91
2022-10-05T03:46:26.728Z,5.92
2022-10-05T03:49:07.180Z,5.93
2022-10-05T03:51:44.161Z,5.94
2022-10-05T03:54:22.418Z,5.97
2022-10-05T03:56:56.983Z,5.98
2022-10-05T03:59:36.526Z,5.98
2022-10-05T04:02:14.403Z,6.01
2022-10-05T04:04:51.878Z,6.01
2022-10-05T04:07:36.689Z,6.00
2022-10-05T04:10:17.651Z,5.95
2022-10-05T04:12:55.266Z,5.94
2022-10-05T04:15:33.825Z,5.95
2022-10-05T04:18:07.289Z,5.95
2022-10-05T04:20:45.893Z,5.95
2022-10-05T04:23:25.435Z,5.93
2022-10-05T04:26:03.557Z,5.95
2022-10-05T04:28:45.911Z,5.99
2022-10-05T04:31:27.003Z,6.04
2022-10-05T04:34:10.665Z,6.13
2022-10-05T04:36:50.197Z,6.23
2022-10-05T04:39:34.263Z,6.31
2022-10-05T04:42:13.461Z,6.36
2022-10-05T04:45:08.808Z,6.40
2022-10-05T04:48:05.040Z,6.44
2022-10-05T04:50:48.694Z,6.45
2022-10-05T04:53:28.521Z,6.45
2022-10-05T04:56:04.384Z,6.45
2022-10-05T04:58:46.658Z,6.46
2022-10-05T05:01:36.145Z,6.46
2022-10-05T05:04:23.375Z,6.44
2022-10-05T05:07:04.870Z,6.43
2022-10-05T05:10:07.953Z,6.43
2022-10-05T05:12:52.327Z,6.45
2022-10-05T05:15:36.549Z,6.49
2022-10-05T05:18:28.797Z,6.54
2022-10-05T05:21:09.769Z,6.64
2022-10-05T05:23:45.716Z,6.72
2022-10-05T05:26:25.156Z,6.80
2022-10-05T05:29:06.654Z,6.86
2022-10-05T05:31:44.908Z,6.90
2022-10-05T05:34:34.992Z,6.91
2022-10-05T05:37:13.602Z,6.92
2022-10-05T05:39:54.644Z,6.96
2022-10-05T05:42:37.062Z,7.00
2022-10-05T05:45:17.631Z,7.03
2022-10-05T05:47:54.434Z,7.08
2022-10-05T05:50:42.589Z,7.12
2022-10-05T05:53:20.022Z,7.15
2022-10-05T05:55:56.399Z,7.21
2022-10-05T05:58:32.979Z,7.33
2022-10-05T06:01:25.111Z,7.47
2022-10-05T06:04:07.628Z,7.59
2022-10-05T06:06:46.960Z,7.64
2022-10-05T06:09:22.202Z,7.71
2022-10-05T06:11:58.249Z,7.76
2022-10-05T06:14:36.279Z,7.82
2022-10-05T06:17:13.338Z,7.83
2022-10-05T06:19:47.066Z,7.83
2022-10-05T06:22:22.417Z,7.84
2022-10-05T06:25:05.416Z,7.85
2022-10-05T06:27:59.261Z,7.88
2022-10-05T06:30:42.217Z,7.92
2022-10-05T06:33:24.730Z,7.98
2022-10-05T06:36:08.267Z,8.07
2022-10-05T06:38:55.283Z,8.19
2022-10-05T06:41:35.746Z,8.32
2022-10-05T06:44:10.909Z,8.42
2022-10-05T06:46:55.336Z,8.56
2022-10-05T06:49:31.571Z,8.73
2022-10-05T06:52:11.953Z,8.89
2022-10-05T06:54:56.551Z,8.99
2022-10-05T06:57:44.162Z,9.09
2022-10-05T07:00:21.290Z,9.19
2022-10-05T07:02:59.447Z,9.30
2022-10-05T07:05:53.849Z,9.47
2022-10-05T07:08:39.221Z,9.70
2022-10-05T07:11:24.317Z,9.94
2022-10-05T07:14:14.623Z,10.17
2022-10-05T07:17:02.729Z,10.39
2022-10-05T07:19:43.091Z,10.60
2022-10-05T07:22:55.513Z,10.84
2022-10-05T07:25:36.901Z,11.12
2022-10-05T07:28:14.667Z,11.33
2022-10-05T07:30:55.946Z,11.55
2022-10-05T07:33:35.430Z,11.77
2022-10-05T07:36:33.030Z,12.01
2022-10-05T07:39:11.875Z,12.47
2022-10-05T07:41:47.982Z,13.30
2022-10-05T07:44:27.921Z,14.39
2022-10-05T07:47:06.417Z,15.38
2022-10-05T07:49:47.018Z,16.41
2022-10-05T07:52:24.852Z,17.32
2022-10-05T07:55:06.496Z,18.06
2022-10-05T07:57:48.728Z,18.66
2022-10-05T08:00:23.250Z,19.18
2022-10-05T08:02:59.134Z,19.86
2022-10-05T08:05:32.811Z,19.97
2022-10-05T08:08:19.642Z,19.51
2022-10-05T08:10:58.210Z,19.03
2022-10-05T08:13:36.034Z,18.64
2022-10-05T08:16:13.619Z,18.41
2022-10-05T08:18:56.038Z,18.23
2022-10-05T08:21:37.322Z,17.96
2022-10-05T08:24:19.321Z,17.78
2022-10-05T08:26:59.892Z,17.67
2022-10-05T08:29:39.016Z,17.54
2022-10-05T08:32:19.989Z,17.39
2022-10-05T08:34:56.960Z,17.24
2022-10-05T08:37:32.333Z,17.12
2022-10-05T08:40:32.370Z,17.05
2022-10-05T08:43:22.933Z,17.09
2022-10-05T08:46:36.788Z,17.58
2022-10-05T08:49:34.913Z,18.73
2022-10-05T08:52:30.381Z,20.05
2022-10-05T08:55:38.988Z,20.85
2022-10-05T08:58:33.299Z,21.58
2022-10-05T09:01:13.178Z,22.41
2022-10-05T09:04:01.491Z,22.95
2022-10-05T09:06:53.911Z,23.29
2022-10-05T09:09:47.908Z,23.29
2022-10-05T09:12:38.098Z,23.15
2022-10-05T09:15:35.093Z,22.92
2022-10-05T09:18:29.350Z,22.60
2022-10-05T09:21:02.919Z,22.09
2022-10-05T09:23:42.982Z,21.74
2022-10-05T09:26:44.247Z,21.72
2022-10-05T09:29:40.370Z,22.08
2022-10-05T09:32:36.805Z,22.49
2022-10-05T09:35:22.912Z,22.99
2022-10-05T09:38:16.378Z,23.05
2022-10-05T09:41:20.901Z,23.22
2022-10-05T09:44:33.826Z,23.51
2022-10-05T09:47:38.939Z,23.72
2022-10-05T09:50:47.788Z,23.93
2022-10-05T09:53:45.569Z,24.10
2022-10-05T09:56:49.097Z,24.65
2022-10-05T10:03:21.359Z,26.28
2022-10-05T10:06:17.613Z,26.57
2022-10-05T10:09:10.053Z,26.59
2022-10-05T10:12:02.602Z,27.19
2022-10-05T10:15:11.112Z,27.76
2022-10-05T10:18:10.120Z,28.25
2022-10-05T10:21:00.617Z,28.50
2022-10-05T10:23:47.941Z,28.62
2022-10-05T10:29:47.001Z,27.95
2022-10-05T10:32:37.866Z,27.54
2022-10-05T10:35:31.649Z,27.24
2022-10-05T10:38:35.056Z,26.96
2022-10-05T10:41:48.284Z,26.70
2022-10-05T10:45:00.186Z,26.36
2022-10-05T10:47:56.203Z,25.93
2022-10-05T10:50:50.617Z,25.36
2022-10-05T10:53:39.258Z,24.96
2022-10-05T10:56:29.444Z,24.79
2022-10-05T10:59:36.131Z,24.50
2022-10-05T11:02:37.278Z,24.29
2022-10-05T11:05:39.046Z,24.14
2022-10-05T11:08:38.337Z,24.01
2022-10-05T11:11:31.053Z,23.79
2022-10-05T11:14:29.137Z,23.64
2022-10-05T11:17:24.371Z,23.46
2022-10-05T11:20:09.442Z,23.24
2022-10-05T11:23:10.045Z,23.17
2022-10-05T11:26:02.745Z,23.17
2022-10-05T11:29:11.583Z,23.12
2022-10-05T11:32:08.928Z,23.24
2022-10-05T11:35:03.424Z,23.36
2022-10-05T11:37:58.420Z,23.53
2022-10-05T11:40:57.105Z,23.73
2022-10-05T11:44:06.114Z,24.12
2022-10-05T11:46:49.354Z,24.50
2022-10-05T11:49:34.235Z,24.83
2022-10-05T11:52:19.411Z,25.03
2022-10-05T11:55:16.213Z,25.02
2022-10-05T11:57:54.397Z,24.97
2022-10-05T12:00:31.874Z,24.91
2022-10-05T12:03:29.300Z,24.93
2022-10-05T12:06:26.380Z,24.94
2022-10-05T12:09:15.262Z,24.89
2022-10-05T12:11:59.093Z,24.86
2022-10-05T12:14:34.625Z,24.93
2022-10-05T12:17:15.822Z,25.01
2022-10-05T12:19:55.766Z,25.05
2022-10-05T12:22:32.970Z,24.96
2022-10-05T12:25:17.562Z,24.66
2022-10-05T12:27:53.367Z,24.27
2022-10-05T12:30:33.872Z,23.86
2022-10-05T12:33:13.895Z,23.48
2022-10-05T12:35:51.999Z,23.21
2022-10-05T12:38:29.492Z,22.90
2022-10-05T12:41:08.725Z,22.65
2022-10-05T12:43:53.935Z,22.50
2022-10-05T12:46:33.018Z,22.33
2022-10-05T12:49:29.574Z,22.17
2022-10-05T12:52:03.262Z,21.88
2022-10-05T12:54:48.143Z,21.60
2022-10-05T12:57:28.608Z,21.34
2022-10-05T13:00:04.580Z,21.11
2022-10-05T13:02:43.311Z,20.92
2022-10-05T13:05:34.800Z,20.73
2022-10-05T13:08:19.181Z,20.59
2022-10-05T13:10:54.290Z,20.44
2022-10-05T13:13:38.753Z,20.28
2022-10-05T13:16:20.771Z,20.13
2022-10-05T13:19:05.222Z,19.97
2022-10-05T13:21:58.064Z,19.78
2022-10-05T13:24:32.713Z,19.61
2022-10-05T13:27:11.534Z,19.50
2022-10-05T13:29:52.278Z,19.38
2022-10-05T13:32:30.595Z,19.21
2022-10-05T13:35:17.856Z,19.06
2022-10-05T13:37:59.950Z,18.93
2022-10-05T13:40:38.643Z,18.82
2022-10-05T13:43:20.266Z,18.72
2022-10-05T13:45:57.097Z,18.64
2022-10-05T13:48:49.885Z,18.56
2022-10-05T13:51:24.806Z,18.45
2022-10-05T13:54:05.921Z,18.38
2022-10-05T13:56:43.992Z,18.33
2022-10-05T13:59:24.770Z,18.28
2022-10-05T14:02:02.713Z,18.23
2022-10-05T14:04:47.970Z,18.16
2022-10-05T14:07:31.469Z,18.13
2022-10-05T14:10:05.201Z,18.10
2022-10-05T14:12:44.517Z,18.07
2022-10-05T14:15:23.839Z,18.04
2022-10-05T14:17:55.601Z,18.00
2022-10-05T14:20:31.166Z,17.98
2022-10-05T14:23:07.166Z,17.95
2022-10-05T14:25:54.167Z,17.92
2022-10-05T14:28:29.698Z,17.86
2022-10-05T14:31:04.621Z,17.81
2022-10-05T14:33:38.405Z,17.77
2022-10-05T14:36:17.263Z,17.73
2022-10-05T14:38:57.935Z,17.68
2022-10-05T14:41:35.819Z,17.62
2022-10-05T14:44:30.001Z,17.57
2022-10-05T14:47:18.968Z,17.52
2022-10-05T14:50:14.178Z,17.46
2022-10-05T14:53:00.850Z,17.40
2022-10-05T14:55:48.261Z,17.34
2022-10-05T14:58:35.320Z,17.28
2022-10-05T15:01:15.640Z,17.22
2022-10-05T15:03:59.844Z,17.17
2022-10-05T15:06:38.721Z,17.11
2022-10-05T15:09:40.730Z,17.05
2022-10-05T15:12:19.441Z,16.98
2022-10-05T15:14:53.767Z,16.93
2022-10-05T15:17:32.137Z,16.87
2022-10-05T15:20:09.782Z,16.82
2022-10-05T15:22:50.238Z,16.77
2022-10-05T15:25:28.143Z,16.70
2022-10-05T15:28:13.268Z,16.64
2022-10-05T15:30:53.665Z,16.56
2022-10-05T15:33:34.290Z,16.49
2022-10-05T15:36:12.699Z,16.40
2022-10-05T15:39:00.190Z,16.32
2022-10-05T15:41:50.707Z,16.26
2022-10-05T15:44:34.338Z,16.20
2022-10-05T15:47:10.442Z,16.12
2022-10-05T15:49:57.359Z,16.05
2022-10-05T15:52:37.252Z,16.00
2022-10-05T15:55:36.478Z,15.94
2022-10-05T15:58:31.665Z,15.88
2022-10-05T16:01:11.689Z,15.82
2022-10-05T16:03:50.522Z,15.77
2022-10-05T16:06:57.177Z,15.69
2022-10-05T16:09:43.730Z,15.62
2022-10-05T16:12:27.468Z,15.55
2022-10-05T16:15:16.945Z,15.50
2022-10-05T16:18:01.839Z,15.44
2022-10-05T16:20:46.490Z,15.37
2022-10-05T16:23:28.386Z,15.31
2022-10-05T16:26:14.739Z,15.26
2022-10-05T16:29:00.879Z,15.20
2022-10-05T16:31:40.529Z,15.14
2022-10-05T16:34:26.210Z,15.09
2022-10-05T16:37:09.447Z,15.03
2022-10-05T16:39:51.419Z,15.00
2022-10-05T16:42:42.052Z,14.95
2022-10-05T16:45:28.660Z,14.89
2022-10-05T16:48:09.618Z,14.84
2022-10-05T16:50:54.284Z,14.81
2022-10-05T16:53:31.828Z,14.78
2022-10-05T16:56:07.425Z,14.73
2022-10-05T16:58:52.288Z,14.69
2022-10-05T17:01:39.874Z,14.65
2022-10-05T17:04:34.805Z,14.59
2022-10-05T17:07:35.211Z,14.55
2022-10-05T17:10:26.899Z,14.51
2022-10-05T17:13:07.335Z,14.46
2022-10-05T17:15:54.340Z,14.44
2022-10-05T17:18:51.405Z,14.44
2022-10-05T17:21:31.140Z,14.45
2022-10-05T17:24:21.740Z,14.48
2022-10-05T17:27:21.774Z,14.52
2022-10-05T17:29:55.910Z,14.52
2022-10-05T17:32:40.190Z,14.54
2022-10-05T17:35:50.942Z,14.55
2022-10-05T17:38:25.432Z,14.55
2022-10-05T17:41:19.653Z,14.52
2022-10-05T17:44:20.155Z,14.50
2022-10-05T17:46:55.019Z,14.48
2022-10-05T17:50:08.938Z,14.46
2022-10-05T17:53:02.269Z,14.42
2022-10-05T17:55:44.196Z,14.39
2022-10-05T17:59:00.823Z,14.32
2022-10-05T18:01:38.460Z,14.26
2022-10-05T18:04:30.564Z,14.22
2022-10-05T18:07:16.227Z,14.19
2022-10-05T18:09:57.391Z,14.16
2022-10-05T18:12:45.975Z,14.12
2022-10-05T18:15:46.090Z,14.09
2022-10-05T18:18:38.753Z,14.07
2022-10-05T18:21:24.525Z,14.12
2022-10-05T18:24:18.712Z,14.17
2022-10-05T18:27:00.292Z,14.23
2022-10-05T18:30:05.744Z,14.26
2022-10-05T18:32:59.002Z,14.28
2022-10-05T18:35:38.178Z,14.30
2022-10-05T18:38:25.438Z,14.29
2022-10-05T18:41:03.375Z,14.28
2022-10-05T18:43:41.062Z,14.26
2022-10-05T18:46:27.433Z,14.23
2022-10-05T18:49:11.974Z,14.18
2022-10-05T18:51:52.499Z,14.15
2022-10-05T18:54:38.492Z,14.11
2022-10-05T18:57:40.864Z,14.06
2022-10-05T19:00:19.902Z,14.00
2022-10-05T19:02:57.235Z,13.95
2022-10-05T19:05:48.664Z,13.91
2022-10-05T19:08:32.950Z,13.87
2022-10-05T19:11:16.088Z,13.83
2022-10-05T19:13:58.297Z,13.84
2022-10-05T19:16:55.716Z,13.85
2022-10-05T19:19:45.219Z,13.86
2022-10-05T19:22:27.435Z,13.87
2022-10-05T19:25:17.520Z,13.86
2022-10-05T19:28:00.611Z,13.82
2022-10-05T19:30:45.491Z,13.78
2022-10-05T19:33:32.426Z,13.73
2022-10-05T19:36:25.902Z,13.65
2022-10-05T19:39:07.934Z,13.61
2022-10-05T19:41:54.388Z,13.56
2022-10-05T19:44:39.687Z,13.50
2022-10-05T19:47:25.068Z,13.47
2022-10-05T19:50:07.588Z,13.40
2022-10-05T19:52:49.837Z,13.35
2022-10-05T19:55:32.918Z,13.29
2022-10-05T19:58:17.478Z,13.24
2022-10-05T20:00:56.204Z,13.23
2022-10-05T20:03:29.907Z,13.24
2022-10-05T20:06:00.851Z,13.25
2022-10-05T20:08:42.125Z,13.25
2022-10-05T20:11:15.605Z,13.24
2022-10-05T20:13:49.238Z,13.22
2022-10-05T20:16:49.982Z,13.19
2022-10-05T20:19:55.520Z,13.14
2022-10-05T20:22:30.825Z,13.08
2022-10-05T20:25:03.768Z,13.03
2022-10-05T20:27:56.057Z,12.98
2022-10-05T20:30:31.554Z,12.92
2022-10-05T20:33:04.745Z,12.87
2022-10-05T20:35:36.289Z,12.84
2022-10-05T20:38:07.700Z,12.79
2022-10-05T20:40:40.038Z,12.73
2022-10-05T20:43:11.669Z,12.72
2022-10-05T20:45:44.381Z,12.71
2022-10-05T20:48:17.558Z,12.69
2022-10-05T20:50:49.080Z,12.73
2022-10-05T20:53:20.559Z,12.72
2022-10-05T20:55:52.010Z,12.71
2022-10-05T20:58:24.051Z,12.69
2022-10-05T21:01:13.293Z,12.65
2022-10-05T21:03:44.897Z,12.62
2022-10-05T21:06:18.023Z,12.59
2022-10-05T21:08:51.595Z,12.53
2022-10-05T21:11:23.365Z,12.48
2022-10-05T21:13:55.218Z,12.42
2022-10-05T21:16:27.107Z,12.40
2022-10-05T21:18:58.637Z,12.37
2022-10-05T21:21:30.088Z,12.36
2022-10-05T21:24:01.568Z,12.38
2022-10-05T21:26:34.325Z,12.40
2022-10-05T21:29:11.550Z,12.40
2022-10-05T21:31:44.269Z,12.38
2022-10-05T21:34:15.956Z,12.35
2022-10-05T21:36:47.536Z,12.32
2022-10-05T21:39:19.377Z,12.28
2022-10-05T21:41:51.154Z,12.26
2022-10-05T21:44:22.806Z,12.22
2022-10-05T21:46:54.443Z,12.19
2022-10-05T21:49:26.807Z,12.15
2022-10-05T21:51:59.926Z,12.11
2022-10-05T21:54:33.829Z,12.10
2022-10-05T21:57:05.690Z,12.11
2022-10-05T21:59:37.664Z,12.13
2022-10-05T22:02:09.561Z,12.15
2022-10-05T22:04:41.278Z,12.13
2022-10-05T22:07:20.514Z,12.13
2022-10-05T22:09:52.693Z,12.11
2022-10-05T22:12:24.649Z,12.10
2022-10-05T22:14:56.203Z,12.09
2022-10-05T22:17:31.251Z,12.06
2022-10-05T22:20:03.780Z,12.02
2022-10-05T22:22:35.217Z,11.97
2022-10-05T22:25:07.765Z,11.93
2022-10-05T22:27:39.659Z,11.92
2022-10-05T22:30:15.077Z,11.90
2022-10-05T22:32:46.930Z,11.92
2022-10-05T22:35:18.689Z,11.93
2022-10-05T22:37:50.142Z,11.93
2022-10-05T22:40:21.836Z,11.91
2022-10-05T22:42:54.253Z,11.90
2022-10-05T22:45:30.355Z,11.86
2022-10-05T22:48:03.924Z,11.82
2022-10-05T22:50:35.399Z,11.78
2022-10-05T22:53:07.149Z,11.76
2022-10-05T22:55:38.704Z,11.72
2022-10-05T22:58:10.181Z,11.69
2022-10-05T23:00:57.465Z,11.69
2022-10-05T23:03:29.423Z,11.69
2022-10-05T23:06:03.512Z,11.70
2022-10-05T23:08:36.493Z,11.72
2022-10-05T23:11:09.638Z,11.74
2022-10-05T23:13:41.602Z,11.74
2022-10-05T23:16:15.519Z,11.73
2022-10-05T23:18:48.706Z,11.71
2022-10-05T23:21:21.286Z,11.68
2022-10-05T23:23:52.702Z,11.65
2022-10-05T23:26:26.063Z,11.62
2022-10-05T23:28:57.928Z,11.58
2022-10-05T23:31:33.633Z,11.52
2022-10-05T23:34:05.090Z,11.48
2022-10-05T23:36:36.510Z,11.46
2022-10-05T23:39:07.961Z,11.45
2022-10-05T23:41:39.562Z,11.46
2022-10-05T23:44:11.111Z,11.47
2022-10-05T23:46:42.557Z,11.49
2022-10-05T23:49:14.941Z,11.49
2022-10-05T23:51:46.315Z,11.47
2022-10-05T23:54:17.744Z,11.49
2022-10-05T23:56:49.141Z,11.48
2022-10-05T23:59:20.581Z,11.45
